Time;durP1;ratioP1;P1;durP2;ratioP2;P2;SDS_P1;SDS_P2;PMS_P1;PMS_P2;Temp;Humidity;BMP_temperature;BMP_pressure;BME280_temperature;BME280_humidity;BME280_pressure;Samples;Min_cycle;Max_cycle;Signal;HPM_P1;HPM_P2
2022/04/22 00:02:21;;;;;;;6.75;3.15;;;12.30;99.90;;;;;;5030539;28;20120;-47
2022/04/22 00:04:47;;;;;;;6.47;3.15;;;12.30;99.90;;;;;;5030412;28;20042;-49
2022/04/22 00:07:13;;;;;;;7.50;3.22;;;12.30;99.90;;;;;;5030181;28;20389;-52
2022/04/22 00:09:38;;;;;;;5.22;3.20;;;12.20;99.90;;;;;;5030808;28;20504;-48
2022/04/22 00:12:05;;;;;;;5.70;3.30;;;12.30;99.90;;;;;;5030384;28;20033;-46
2022/04/22 00:14:31;;;;;;;7.43;3.40;;;12.10;99.90;;;;;;5030547;28;20113;-50
2022/04/22 00:16:57;;;;;;;7.43;3.15;;;12.10;99.90;;;;;;5030045;28;20146;-50
2022/04/22 00:19:23;;;;;;;8.32;3.88;;;12.10;99.90;;;;;;5030744;28;20041;-52
2022/04/22 00:21:48;;;;;;;6.57;3.33;;;12.10;99.90;;;;;;5030489;28;20040;-48
2022/04/22 00:24:15;;;;;;;8.68;3.60;;;12.00;99.90;;;;;;5029983;28;20037;-46
2022/04/22 00:26:42;;;;;;;6.90;4.10;;;11.90;99.90;;;;;;5029619;28;20056;-53
2022/04/22 00:29:07;;;;;;;7.10;4.15;;;11.70;99.90;;;;;;5030559;28;20037;-50
2022/04/22 00:31:33;;;;;;;8.63;4.32;;;11.60;99.90;;;;;;5029900;28;20033;-50
2022/04/22 00:33:59;;;;;;;8.30;4.30;;;11.60;99.90;;;;;;5030121;28;20049;-46
2022/04/22 00:36:25;;;;;;;9.77;4.70;;;11.60;99.90;;;;;;5029843;28;20041;-50
2022/04/22 00:38:51;;;;;;;11.13;5.25;;;11.60;99.90;;;;;;5030385;28;20637;-48
2022/04/22 00:41:17;;;;;;;9.75;5.35;;;11.50;99.90;;;;;;5030280;28;20037;-50
2022/04/22 00:43:49;;;;;;;10.20;5.50;;;11.50;99.90;;;;;;5030373;28;20052;-46
2022/04/22 00:46:15;;;;;;;12.10;5.40;;;11.50;99.90;;;;;;5030191;28;20046;-52
2022/04/22 00:48:41;;;;;;;9.52;5.78;;;11.50;99.90;;;;;;5030555;28;20494;-43
2022/04/22 00:51:08;;;;;;;13.70;6.28;;;11.40;99.90;;;;;;5034157;28;20044;-48
2022/04/22 00:53:35;;;;;;;12.90;6.55;;;11.40;99.90;;;;;;5033798;28;20100;-45
2022/04/22 00:56:06;;;;;;;13.55;6.68;;;11.20;99.90;;;;;;5033569;28;20045;-45
2022/04/22 00:58:32;;;;;;;11.20;5.97;;;11.20;99.90;;;;;;5033703;28;20102;-47
2022/04/22 01:00:58;;;;;;;11.50;6.35;;;11.20;99.90;;;;;;5033889;28;20497;-45
2022/04/22 01:03:23;;;;;;;10.27;6.20;;;11.20;99.90;;;;;;5033345;28;20053;-46
2022/04/22 01:11:31;;;;;;;14.38;7.18;;;11.10;99.90;;;;;;5024429;28;20486;-46
2022/04/22 01:13:59;;;;;;;12.88;6.63;;;11.10;99.90;;;;;;5033342;28;20046;-47
2022/04/22 01:16:25;;;;;;;10.40;6.43;;;11.10;99.90;;;;;;5033608;28;20049;-46
2022/04/22 01:18:51;;;;;;;13.77;6.30;;;11.10;99.90;;;;;;5033117;28;20052;-46
2022/04/22 01:21:18;;;;;;;12.75;6.38;;;11.00;99.90;;;;;;5033373;28;20082;-50
2022/04/22 01:23:44;;;;;;;12.30;6.90;;;11.00;99.90;;;;;;5031677;28;20072;-50
2022/04/22 01:26:12;;;;;;;13.40;7.57;;;10.90;99.90;;;;;;5032888;28;20065;-45
2022/04/22 01:28:39;;;;;;;9.52;6.18;;;10.90;99.90;;;;;;5033231;28;20040;-48
2022/04/22 01:31:05;;;;;;;12.55;7.05;;;10.90;99.90;;;;;;5033253;28;20427;-50
2022/04/22 01:33:31;;;;;;;11.88;6.75;;;10.80;99.90;;;;;;5032963;28;20049;-50
2022/04/22 01:35:57;;;;;;;12.10;7.00;;;10.90;99.90;;;;;;5032714;28;20055;-44
2022/04/22 01:38:23;;;;;;;13.75;6.88;;;10.80;99.90;;;;;;5032725;28;20038;-49
2022/04/22 01:40:49;;;;;;;13.23;7.63;;;10.80;99.90;;;;;;5033021;28;20085;-50
2022/04/22 01:43:15;;;;;;;14.27;7.50;;;10.80;99.90;;;;;;5032572;28;20033;-47
2022/04/22 01:45:41;;;;;;;12.05;6.82;;;10.90;99.90;;;;;;5015009;28;20085;-49
2022/04/22 01:48:07;;;;;;;14.40;6.97;;;10.70;99.90;;;;;;5033001;28;20420;-51
2022/04/22 01:50:32;;;;;;;12.23;6.90;;;10.80;99.90;;;;;;5033039;28;20026;-46
2022/04/22 01:52:59;;;;;;;12.75;7.30;;;10.70;99.90;;;;;;5032775;28;20041;-51
2022/04/22 01:55:26;;;;;;;16.35;7.32;;;10.70;99.90;;;;;;5032291;28;20049;-47
2022/04/22 01:57:53;;;;;;;12.48;7.43;;;10.60;99.90;;;;;;5032702;28;20493;-45
2022/04/22 02:00:19;;;;;;;14.32;7.40;;;10.60;99.90;;;;;;5031731;28;20081;-50
2022/04/22 02:02:44;;;;;;;15.88;7.88;;;10.50;99.90;;;;;;5032759;28;20087;-51
2022/04/22 02:05:10;;;;;;;12.18;8.30;;;10.50;99.90;;;;;;5032428;28;20480;-46
2022/04/22 02:07:36;;;;;;;12.85;8.18;;;10.50;99.90;;;;;;5032097;28;20107;-47
2022/04/22 02:10:01;;;;;;;15.77;8.52;;;10.40;99.90;;;;;;5032795;28;20041;-49
2022/04/22 02:12:27;;;;;;;15.65;8.73;;;10.30;99.90;;;;;;5032256;28;20038;-48
2022/04/22 02:14:53;;;;;;;18.83;8.75;;;10.30;99.90;;;;;;5031383;28;20091;-44
2022/04/22 02:17:18;;;;;;;15.98;8.57;;;10.30;99.90;;;;;;5032101;28;20042;-48
2022/04/22 02:19:44;;;;;;;15.10;8.95;;;10.30;99.90;;;;;;5032415;28;20060;-46
2022/04/22 02:22:10;;;;;;;14.88;9.20;;;10.20;99.90;;;;;;5032194;28;20448;-46
2022/04/22 02:24:36;;;;;;;18.10;9.43;;;10.10;99.90;;;;;;5032146;28;20370;-49
2022/04/22 02:29:46;;;;;;;17.08;10.20;;;10.00;99.90;;;;;;5032229;28;20136;-49
2022/04/22 02:32:12;;;;;;;17.27;9.80;;;10.00;99.90;;;;;;5032105;28;20108;-48
2022/04/22 02:34:38;;;;;;;20.05;10.48;;;10.00;99.90;;;;;;5031678;28;20072;-49
2022/04/22 02:37:04;;;;;;;19.63;11.38;;;10.00;99.90;;;;;;5032106;28;20081;-48
2022/04/22 02:39:29;;;;;;;16.80;10.70;;;9.90;99.90;;;;;;5031912;28;20065;-46
2022/04/22 02:47:23;;;;;;;20.42;11.75;;;9.80;99.90;;;;;;5031760;28;20080;-46
2022/04/22 02:49:49;;;;;;;21.58;10.95;;;9.70;99.90;;;;;;5028888;28;20473;-49
2022/04/22 02:52:15;;;;;;;21.15;11.15;;;9.70;99.90;;;;;;5031514;28;20033;-46
2022/04/22 02:54:42;;;;;;;20.05;11.63;;;9.70;99.90;;;;;;5031939;28;20132;-50
2022/04/22 02:57:09;;;;;;;24.90;12.45;;;9.60;99.90;;;;;;5031119;28;20039;-47
2022/04/22 02:59:37;;;;;;;18.42;11.63;;;9.60;99.90;;;;;;5031733;28;20060;-45
2022/04/22 03:02:03;;;;;;;20.77;10.63;;;9.60;99.90;;;;;;5030508;28;20080;-49
2022/04/22 03:04:28;;;;;;;23.38;11.93;;;9.60;99.90;;;;;;5030963;28;20073;-49
2022/04/22 03:06:57;;;;;;;21.10;11.73;;;9.60;99.90;;;;;;5029761;28;20034;-50
2022/04/22 03:09:23;;;;;;;23.63;12.27;;;9.50;99.90;;;;;;5030677;28;20084;-49
2022/04/22 03:11:49;;;;;;;21.27;12.05;;;9.50;99.90;;;;;;5030714;28;20041;-49
2022/04/22 03:14:15;;;;;;;23.05;12.32;;;9.50;99.90;;;;;;5030098;28;20037;-46
2022/04/22 03:16:42;;;;;;;18.52;11.45;;;9.50;99.90;;;;;;5029286;28;20390;-43
2022/04/22 03:19:08;;;;;;;19.65;11.63;;;9.40;99.90;;;;;;5030502;28;20389;-47
2022/04/22 03:21:34;;;;;;;22.67;11.95;;;9.50;99.90;;;;;;5028803;28;20034;-46
2022/04/22 03:24:00;;;;;;;19.25;11.85;;;9.50;99.90;;;;;;5030421;28;20465;-43
2022/04/22 03:26:25;;;;;;;20.88;12.45;;;9.50;99.90;;;;;;5028470;28;20120;-48
2022/04/22 03:28:52;;;;;;;20.60;12.13;;;9.50;99.90;;;;;;5029399;28;20040;-47
2022/04/22 03:31:18;;;;;;;20.33;11.60;;;9.40;99.90;;;;;;5030551;28;20041;-47
2022/04/22 03:33:44;;;;;;;18.13;10.93;;;9.50;99.90;;;;;;5029964;28;20567;-51
2022/04/22 03:36:10;;;;;;;22.33;12.00;;;9.30;99.90;;;;;;5026481;28;20556;-44
2022/04/22 03:38:36;;;;;;;20.02;11.40;;;9.40;99.90;;;;;;5029089;28;20108;-48
2022/04/22 03:41:02;;;;;;;22.63;11.70;;;9.40;99.90;;;;;;5029647;28;20085;-46
2022/04/22 03:43:28;;;;;;;17.55;11.00;;;9.30;99.90;;;;;;5030393;28;20436;-48
2022/04/22 03:45:53;;;;;;;19.67;10.90;;;9.20;99.90;;;;;;5030507;28;20042;-47
2022/04/22 03:48:19;;;;;;;18.58;11.02;;;9.20;99.90;;;;;;5030181;28;20030;-51
2022/04/22 03:50:45;;;;;;;17.25;10.70;;;9.10;99.90;;;;;;5030186;28;20389;-46
2022/04/22 03:53:14;;;;;;;22.10;11.27;;;9.00;99.90;;;;;;5030296;28;20046;-49
2022/04/22 03:55:41;;;;;;;22.02;11.20;;;8.90;99.90;;;;;;5030245;28;20041;-46
2022/04/22 03:58:13;;;;;;;19.58;10.98;;;8.90;99.90;;;;;;5030659;28;20398;-49
2022/04/22 04:00:51;;;;;;;18.75;10.55;;;8.90;99.90;;;;;;5030855;28;20473;-47
2022/04/22 04:03:19;;;;;;;18.50;10.70;;;8.80;99.90;;;;;;5029548;28;20212;-43
2022/04/22 04:05:52;;;;;;;22.88;10.43;;;8.80;99.90;;;;;;5030522;28;20156;-51
2022/04/22 04:08:22;;;;;;;18.00;11.05;;;8.80;99.90;;;;;;5030556;28;20045;-49
2022/04/22 04:16:17;;;;;;;18.70;10.75;;;8.80;99.90;;;;;;5030137;28;20052;-49
2022/04/22 04:18:43;;;;;;;18.98;10.43;;;8.70;99.90;;;;;;5030367;28;20666;-48
2022/04/22 04:23:56;;;;;;;17.35;9.50;;;8.70;99.90;;;;;;5031190;28;20077;-51
2022/04/22 04:26:24;;;;;;;17.15;9.80;;;8.60;99.90;;;;;;5032690;28;20051;-47
2022/04/22 04:28:51;;;;;;;20.48;10.57;;;8.60;99.90;;;;;;5034310;28;20041;-45
2022/04/22 04:31:17;;;;;;;20.55;9.63;;;8.50;99.90;;;;;;5034233;28;20045;-45
2022/04/22 04:33:44;;;;;;;17.00;9.90;;;8.50;99.90;;;;;;5034261;28;20420;-49
2022/04/22 04:36:10;;;;;;;17.02;9.45;;;8.50;99.90;;;;;;5032571;28;20053;-44
2022/04/22 04:38:41;;;;;;;15.30;9.43;;;8.40;99.90;;;;;;5032933;28;20037;-47
2022/04/22 04:41:08;;;;;;;18.88;9.35;;;8.40;99.90;;;;;;5034237;28;20045;-46
2022/04/22 04:43:40;;;;;;;18.88;9.50;;;8.40;99.90;;;;;;5032711;28;20103;-47
2022/04/22 04:46:06;;;;;;;16.23;9.02;;;8.40;99.90;;;;;;5034098;28;20464;-48
2022/04/22 04:48:33;;;;;;;18.33;8.05;;;8.40;99.90;;;;;;5033955;28;20519;-51
2022/04/22 04:51:00;;;;;;;18.13;8.65;;;8.30;99.90;;;;;;5033839;28;20036;-49
2022/04/22 04:53:25;;;;;;;17.65;8.50;;;8.30;99.90;;;;;;5034172;28;20393;-45
2022/04/22 04:55:52;;;;;;;17.98;7.95;;;8.40;99.90;;;;;;5033657;28;20037;-47
2022/04/22 04:58:19;;;;;;;17.77;8.02;;;8.30;99.90;;;;;;5033832;28;20041;-46
2022/04/22 05:00:45;;;;;;;15.55;8.10;;;8.20;99.90;;;;;;5033819;28;20038;-49
2022/04/22 05:03:11;;;;;;;17.30;8.35;;;8.30;99.90;;;;;;5033619;28;20041;-49
2022/04/22 05:05:37;;;;;;;13.15;7.57;;;8.30;99.90;;;;;;5033586;28;20029;-45
2022/04/22 05:08:05;;;;;;;12.93;7.88;;;8.30;99.90;;;;;;5033710;28;20033;-46
2022/04/22 05:10:32;;;;;;;15.05;7.50;;;8.20;99.90;;;;;;5033316;28;20049;-45
2022/04/22 05:13:03;;;;;;;14.07;7.13;;;8.20;99.90;;;;;;5033803;28;20033;-47
2022/04/22 05:15:30;;;;;;;12.65;6.75;;;8.20;99.90;;;;;;5032193;28;20037;-48
2022/04/22 05:17:58;;;;;;;13.77;6.70;;;8.20;99.90;;;;;;5031277;28;20148;-47
2022/04/22 05:20:27;;;;;;;11.65;7.05;;;8.30;99.90;;;;;;5033281;28;20046;-48
2022/04/22 05:22:54;;;;;;;14.50;6.78;;;8.30;99.90;;;;;;5033112;28;20045;-42
2022/04/22 05:25:20;;;;;;;11.95;6.85;;;8.20;99.90;;;;;;5032608;28;20073;-47
2022/04/22 05:27:47;;;;;;;14.10;6.68;;;8.20;99.90;;;;;;5033009;28;20038;-48
2022/04/22 05:32:59;;;;;;;14.60;7.03;;;8.30;99.90;;;;;;5031711;28;20037;-46
2022/04/22 05:35:27;;;;;;;12.38;6.38;;;8.30;99.90;;;;;;5031541;28;20125;-43
2022/04/22 05:37:54;;;;;;;12.90;7.05;;;8.30;99.90;;;;;;5033033;28;20041;-44
2022/04/22 05:40:25;;;;;;;14.63;6.45;;;8.30;99.90;;;;;;5031633;28;20056;-47
2022/04/22 05:42:52;;;;;;;11.73;6.13;;;8.20;99.90;;;;;;5032800;28;20043;-43
2022/04/22 05:45:19;;;;;;;12.13;6.15;;;8.20;99.90;;;;;;5032641;28;20064;-48
2022/04/22 05:47:45;;;;;;;11.45;5.63;;;8.30;99.90;;;;;;5032955;28;20100;-46
2022/04/22 05:50:13;;;;;;;10.18;5.30;;;8.30;99.90;;;;;;5032951;28;20033;-50
2022/04/22 05:52:39;;;;;;;11.45;6.15;;;8.20;99.90;;;;;;5032436;28;20029;-47
2022/04/22 05:55:16;;;;;;;13.50;5.85;;;8.20;99.90;;;;;;5033050;28;20037;-47
2022/04/22 05:57:44;;;;;;;11.75;5.78;;;8.30;99.90;;;;;;5032431;28;20099;-43
2022/04/22 06:00:12;;;;;;;12.60;5.45;;;8.30;99.90;;;;;;5032555;28;20037;-48
2022/04/22 06:02:42;;;;;;;10.40;5.68;;;8.30;99.90;;;;;;5032370;28;20037;-49
2022/04/22 06:05:13;;;;;;;12.05;5.57;;;8.30;99.90;;;;;;5031152;28;20052;-48
2022/04/22 06:07:40;;;;;;;12.15;5.75;;;8.40;99.90;;;;;;5032539;28;20076;-45
2022/04/22 06:12:51;;;;;;;10.68;5.63;;;8.60;99.90;;;;;;5032605;28;20093;-50
2022/04/22 06:15:17;;;;;;;11.32;5.50;;;8.80;99.90;;;;;;5014654;28;20073;-47
2022/04/22 06:17:43;;;;;;;13.73;4.97;;;8.80;99.90;;;;;;5032328;28;20119;-47
2022/04/22 06:20:09;;;;;;;12.55;5.32;;;8.90;99.90;;;;;;5032174;28;20080;-46
2022/04/22 06:22:35;;;;;;;11.27;5.20;;;8.90;99.90;;;;;;5032074;28;20151;-46
2022/04/22 06:25:01;;;;;;;10.45;5.35;;;8.90;99.90;;;;;;5032220;28;20085;-44
2022/04/22 06:27:29;;;;;;;10.68;5.55;;;8.80;99.90;;;;;;5031634;28;20507;-49
2022/04/22 06:29:56;;;;;;;11.48;5.00;;;8.80;99.90;;;;;;5032200;28;20436;-49
2022/04/22 06:32:27;;;;;;;8.90;5.03;;;8.80;99.90;;;;;;5032070;28;20476;-48
2022/04/22 06:34:53;;;;;;;10.70;4.85;;;8.90;99.90;;;;;;5031840;28;20053;-47
2022/04/22 06:37:19;;;;;;;11.15;5.13;;;8.80;99.90;;;;;;5031738;28;20412;-50
2022/04/22 06:47:59;;;;;;;8.43;4.45;;;8.90;99.90;;;;;;5031618;28;20060;-45
2022/04/22 06:50:25;;;;;;;10.32;5.05;;;9.00;99.90;;;;;;5030538;28;20034;-45
2022/04/22 06:52:51;;;;;;;10.13;4.72;;;9.00;99.90;;;;;;5031727;28;20045;-45
2022/04/22 06:55:17;;;;;;;8.82;4.68;;;9.10;99.90;;;;;;5031723;28;20037;-46
2022/04/22 06:57:50;;;;;;;9.60;5.25;;;9.20;99.90;;;;;;5031042;28;20048;-44
2022/04/22 07:00:18;;;;;;;9.27;4.65;;;9.20;99.90;;;;;;5031458;28;20037;-46
2022/04/22 07:02:44;;;;;;;7.35;4.30;;;9.30;99.90;;;;;;5031264;28;20037;-46
2022/04/22 07:05:10;;;;;;;10.18;4.90;;;9.40;99.90;;;;;;5031242;28;20045;-47
2022/04/22 07:07:36;;;;;;;10.05;4.38;;;9.50;99.90;;;;;;5031367;28;20037;-46
2022/04/22 07:10:03;;;;;;;8.05;4.43;;;9.60;99.90;;;;;;5031588;28;20040;-50
2022/04/22 07:12:31;;;;;;;12.65;4.53;;;9.80;99.90;;;;;;5031401;28;20191;-44
2022/04/22 07:15:04;;;;;;;9.15;4.63;;;9.90;99.90;;;;;;5029896;28;20115;-46
2022/04/22 07:17:34;;;;;;;10.23;5.10;;;9.90;99.90;;;;;;5030148;28;20037;-53
2022/04/22 07:20:01;;;;;;;10.15;4.65;;;10.00;99.90;;;;;;5030969;28;20167;-45
2022/04/22 07:22:27;;;;;;;10.50;4.85;;;10.10;99.90;;;;;;5031246;28;20068;-51
2022/04/22 07:24:54;;;;;;;9.15;4.20;;;10.10;99.90;;;;;;5028057;28;20055;-48
2022/04/22 07:27:30;;;;;;;9.88;4.65;;;10.20;99.90;;;;;;5027864;28;20456;-49
2022/04/22 07:29:58;;;;;;;8.88;3.75;;;10.30;99.90;;;;;;5028901;28;20108;-41
2022/04/22 07:32:25;;;;;;;8.70;4.68;;;10.30;99.90;;;;;;5028569;28;20033;-45
2022/04/22 07:34:51;;;;;;;10.70;4.68;;;10.40;99.90;;;;;;5026581;28;20045;-46
2022/04/22 07:37:18;;;;;;;9.27;4.35;;;10.40;99.90;;;;;;5024018;28;20041;-49
2022/04/22 07:39:44;;;;;;;10.00;4.47;;;10.50;99.90;;;;;;5024372;28;20056;-46
2022/04/22 07:42:18;;;;;;;10.52;4.22;;;10.50;99.90;;;;;;5028891;28;20069;-46
2022/04/22 07:47:35;;;;;;;7.38;4.18;;;10.60;99.90;;;;;;5029238;28;20044;-44
2022/04/22 07:50:05;;;;;;;7.18;3.90;;;10.60;99.90;;;;;;5026498;28;20765;-47
2022/04/22 07:52:34;;;;;;;8.40;4.00;;;10.70;99.90;;;;;;5022341;28;20100;-48
2022/04/22 07:55:00;;;;;;;8.57;3.95;;;10.80;99.90;;;;;;5026743;28;20114;-48
2022/04/22 07:57:27;;;;;;;9.40;3.95;;;10.90;99.90;;;;;;5025869;28;20033;-48
2022/04/22 07:59:53;;;;;;;8.13;3.90;;;10.90;99.90;;;;;;5024933;28;20160;-50
2022/04/22 08:02:19;;;;;;;6.95;3.63;;;11.00;99.90;;;;;;5023100;28;20033;-50
2022/04/22 08:04:45;;;;;;;6.85;3.67;;;11.10;99.90;;;;;;5025004;28;20045;-46
2022/04/22 08:07:11;;;;;;;6.47;4.00;;;11.30;99.90;;;;;;5027234;28;20408;-48
2022/04/22 08:09:38;;;;;;;6.60;3.50;;;11.30;99.90;;;;;;5023893;28;20385;-50
2022/04/22 08:12:04;;;;;;;9.32;4.00;;;11.40;99.90;;;;;;5023968;28;20034;-50
2022/04/22 08:14:32;;;;;;;8.70;4.00;;;11.40;99.90;;;;;;5021471;28;20037;-47
2022/04/22 08:16:59;;;;;;;7.38;3.65;;;11.40;99.90;;;;;;5023697;28;20037;-46
2022/04/22 08:19:25;;;;;;;8.98;3.85;;;11.40;99.90;;;;;;5026470;28;20045;-48
2022/04/22 08:21:50;;;;;;;7.10;3.60;;;11.50;99.90;;;;;;5023302;28;20119;-48
2022/04/22 08:24:16;;;;;;;6.25;4.03;;;11.60;99.90;;;;;;5021090;28;20052;-49
2022/04/22 08:26:42;;;;;;;9.23;3.72;;;11.70;99.90;;;;;;5019910;28;20507;-47
2022/04/22 08:29:07;;;;;;;9.18;3.85;;;11.80;99.90;;;;;;5028110;28;20047;-43
2022/04/22 08:31:33;;;;;;;6.93;3.55;;;11.80;99.90;;;;;;5025105;28;20072;-47
2022/04/22 08:33:59;;;;;;;5.93;3.72;;;11.90;99.90;;;;;;5023536;28;20042;-47
2022/04/22 08:36:28;;;;;;;6.60;3.40;;;12.00;99.90;;;;;;5021602;28;20054;-44
2022/04/22 08:38:55;;;;;;;7.40;3.40;;;12.10;99.90;;;;;;5020173;28;20038;-44
2022/04/22 08:41:21;;;;;;;7.88;3.60;;;12.10;99.90;;;;;;5027698;28;20048;-48
2022/04/22 08:43:49;;;;;;;8.00;3.33;;;12.10;99.90;;;;;;5021541;28;20044;-44
2022/04/22 08:51:44;;;;;;;7.20;3.22;;;12.40;99.90;;;;;;5020972;28;20045;-51
2022/04/22 08:54:12;;;;;;;11.45;3.58;;;12.50;99.90;;;;;;5022032;28;20038;-47
2022/04/22 08:56:39;;;;;;;6.97;3.53;;;12.50;99.90;;;;;;5019614;28;20389;-45
2022/04/22 08:59:05;;;;;;;6.05;3.20;;;12.70;99.90;;;;;;5025846;28;20035;-46
2022/04/22 09:01:31;;;;;;;10.07;3.10;;;12.80;99.90;;;;;;5021850;28;20038;-45
2022/04/22 09:03:56;;;;;;;8.55;3.15;;;12.90;99.90;;;;;;5016020;28;20042;-44
2022/04/22 09:06:25;;;;;;;8.38;3.00;;;13.20;99.90;;;;;;5018316;28;20116;-48
2022/04/22 09:08:54;;;;;;;7.93;2.90;;;13.60;99.90;;;;;;5024007;28;20096;-45
2022/04/22 09:11:20;;;;;;;5.15;2.70;;;13.60;99.90;;;;;;5027570;28;20064;-49
2022/04/22 09:13:46;;;;;;;5.43;2.53;;;13.70;99.90;;;;;;5023531;28;20567;-47
2022/04/22 09:16:22;;;;;;;9.43;2.70;;;13.80;99.90;;;;;;5020224;28;20436;-50
2022/04/22 09:18:57;;;;;;;4.90;2.40;;;13.70;99.90;;;;;;5023355;28;20492;-50
2022/04/22 09:21:24;;;;;;;7.22;2.58;;;14.00;99.90;;;;;;5026253;28;20034;-51
2022/04/22 09:23:50;;;;;;;6.32;2.30;;;13.90;99.70;;;;;;5023762;28;20501;-49
2022/04/22 09:26:26;;;;;;;5.65;2.45;;;14.10;99.90;;;;;;5025023;28;20052;-50
2022/04/22 09:29:05;;;;;;;4.65;1.92;;;14.30;99.90;;;;;;5028736;28;20124;-48
2022/04/22 09:31:47;;;;;;;7.72;2.13;;;14.30;99.10;;;;;;5025348;28;20069;-46
2022/04/22 09:34:13;;;;;;;7.03;2.15;;;14.40;99.00;;;;;;5019328;28;20125;-54
2022/04/22 09:45:09;;;;;;;5.22;1.92;;;15.00;97.80;;;;;;5018941;28;20045;-46
2022/04/22 09:47:36;;;;;;;5.85;1.70;;;15.10;97.30;;;;;;5029514;28;20099;-51
2022/04/22 09:50:08;;;;;;;5.03;1.90;;;15.00;96.80;;;;;;5029843;28;20029;-45
2022/04/22 09:52:38;;;;;;;5.32;2.00;;;15.30;97.10;;;;;;5025986;28;20493;-47
2022/04/22 09:55:07;;;;;;;5.97;2.13;;;15.50;97.40;;;;;;5028551;28;20041;-47
2022/04/22 09:57:55;;;;;;;8.73;2.00;;;15.10;95.60;;;;;;5029014;28;20073;-49
2022/04/22 10:00:31;;;;;;;4.38;1.80;;;15.40;96.20;;;;;;5027623;28;20049;-49
2022/04/22 10:02:57;;;;;;;3.70;1.67;;;15.50;96.00;;;;;;5028035;28;20052;-49
2022/04/22 10:05:28;;;;;;;5.07;1.90;;;15.60;95.40;;;;;;5024174;28;20132;-46
2022/04/22 10:07:56;;;;;;;5.03;1.85;;;15.60;95.10;;;;;;5029239;28;20040;-46
2022/04/22 10:10:29;;;;;;;4.40;1.63;;;15.60;95.20;;;;;;5027884;28;20033;-45
2022/04/22 10:12:57;;;;;;;5.03;2.00;;;15.70;94.50;;;;;;5021375;28;20120;-46
2022/04/22 10:15:27;;;;;;;5.32;1.90;;;15.80;94.90;;;;;;5025169;28;20556;-51
2022/04/22 10:17:53;;;;;;;4.35;1.90;;;15.80;95.50;;;;;;5024265;28;20029;-51
2022/04/22 10:20:20;;;;;;;5.80;2.10;;;15.80;94.20;;;;;;5027950;28;20389;-49
2022/04/22 10:22:49;;;;;;;5.70;1.88;;;15.70;93.50;;;;;;5029315;28;20777;-45
2022/04/22 10:25:16;;;;;;;6.53;2.03;;;15.80;93.80;;;;;;5029217;28;20044;-45
2022/04/22 10:27:43;;;;;;;8.02;2.20;;;15.90;94.00;;;;;;5026456;28;20042;-48
2022/04/22 10:30:14;;;;;;;4.88;1.98;;;16.10;93.40;;;;;;5024638;28;20033;-47
2022/04/22 10:32:41;;;;;;;7.22;2.10;;;16.30;93.40;;;;;;5021193;28;20049;-46
2022/04/22 10:35:08;;;;;;;5.53;1.92;;;16.30;92.50;;;;;;5041574;28;20080;-51
2022/04/22 10:37:34;;;;;;;5.72;2.13;;;16.10;91.60;;;;;;5026875;28;20076;-49
2022/04/22 10:40:02;;;;;;;7.05;2.20;;;16.30;93.30;;;;;;5022982;28;20045;-50
2022/04/22 10:42:33;;;;;;;7.65;2.33;;;16.40;93.90;;;;;;5021700;28;20507;-52
2022/04/22 10:47:49;;;;;;;7.10;2.28;;;16.60;92.40;;;;;;5026273;28;20056;-48
2022/04/22 10:50:23;;;;;;;5.35;2.25;;;16.50;91.90;;;;;;5025987;28;20044;-48
2022/04/22 10:53:23;;;;;;;10.32;2.40;;;16.80;92.30;;;;;;5022390;28;20381;-49
2022/04/22 10:55:50;;;;;;;5.70;2.00;;;16.60;91.20;;;;;;5025041;28;20041;-53
2022/04/22 10:58:23;;;;;;;6.00;2.25;;;16.80;91.20;;;;;;5028199;28;20214;-51
2022/04/22 11:00:57;;;;;;;7.40;2.67;;;16.80;91.20;;;;;;5025362;28;20052;-49
2022/04/22 11:03:31;;;;;;;5.22;2.10;;;16.70;90.60;;;;;;5028170;28;20124;-48
2022/04/22 11:06:02;;;;;;;4.45;2.35;;;17.00;91.40;;;;;;5029053;28;20469;-49
2022/04/22 11:08:41;;;;;;;5.43;2.20;;;17.00;91.10;;;;;;5027129;28;20033;-52
2022/04/22 11:11:18;;;;;;;5.05;2.28;;;17.20;92.40;;;;;;5028872;28;20497;-51
2022/04/22 11:13:52;;;;;;;5.22;1.90;;;17.10;90.30;;;;;;5018954;28;20048;-48
2022/04/22 11:16:18;;;;;;;;;;;17.60;91.80;;;;;;5021623;28;20038;-51
2022/04/22 11:18:45;;;;;;;6.43;2.13;;;17.80;90.60;;;;;;5016893;28;19943;-44
2022/04/22 11:21:35;;;;;;;5.38;2.30;;;18.00;91.30;;;;;;5026137;28;20049;-47
2022/04/22 11:24:09;;;;;;;8.20;2.40;;;18.00;90.20;;;;;;5024136;28;20046;-45
2022/04/22 11:26:35;;;;;;;4.70;2.10;;;18.40;89.00;;;;;;5020490;28;20029;-45
2022/04/22 11:29:07;;;;;;;7.10;2.13;;;18.60;90.30;;;;;;5024448;28;20701;-55
2022/04/22 12:36:27;;;;;;;6.97;3.13;;;21.00;75.30;;;;;;3504636;22;139762;-46
2022/04/22 12:38:53;;;;;;;9.70;2.85;;;21.30;74.60;;;;;;5094481;28;20055;-49
2022/04/22 12:41:23;;;;;;;5.97;3.00;;;21.70;74.10;;;;;;5107591;28;20047;-47
2022/04/22 12:43:50;;;;;;;7.32;3.70;;;21.60;72.00;;;;;;5105009;28;20067;-49
2022/04/22 12:52:16;;;;;;;7.32;3.28;;;21.30;72.40;;;;;;5093449;28;20402;-48
2022/04/22 12:54:47;;;;;;;7.30;3.65;;;21.20;72.30;;;;;;5093252;28;20036;-49
2022/04/22 12:57:25;;;;;;;11.73;4.00;;;21.40;72.40;;;;;;5093451;28;20490;-46
2022/04/22 12:59:56;;;;;;;8.02;3.40;;;21.80;73.80;;;;;;5093264;28;20111;-48
2022/04/22 13:02:30;;;;;;;7.13;3.72;;;21.30;72.10;;;;;;5078576;28;20475;-46
2022/04/22 13:04:57;;;;;;;8.40;3.58;;;21.60;72.00;;;;;;5074526;28;20042;-46
2022/04/22 13:07:24;;;;;;;8.60;3.55;;;21.50;72.00;;;;;;5074186;28;20032;-46
2022/04/22 13:09:50;;;;;;;7.32;3.53;;;21.70;72.80;;;;;;5072989;28;20040;-48
2022/04/22 13:12:17;;;;;;;6.40;3.50;;;22.00;70.80;;;;;;5073231;28;20048;-47
2022/04/22 13:14:43;;;;;;;8.23;3.85;;;21.80;70.70;;;;;;5054663;28;20107;-49
2022/04/22 13:17:24;;;;;;;9.55;3.90;;;21.40;71.50;;;;;;5055593;28;20032;-48
2022/04/22 13:19:50;;;;;;;8.20;4.25;;;21.40;70.00;;;;;;5072775;28;20040;-48
2022/04/22 13:22:16;;;;;;;8.43;4.00;;;21.40;71.40;;;;;;5072881;28;20381;-49
2022/04/22 13:24:44;;;;;;;7.68;3.45;;;21.80;72.40;;;;;;5072408;28;20040;-46
2022/04/22 13:27:11;;;;;;;8.02;4.07;;;21.50;71.10;;;;;;5072578;28;20110;-47
2022/04/22 13:29:37;;;;;;;6.90;4.05;;;22.10;71.10;;;;;;5072507;28;20055;-46
2022/04/22 13:32:03;;;;;;;8.35;3.80;;;22.00;69.60;;;;;;5071798;28;20037;-47
2022/04/22 13:34:29;;;;;;;9.10;4.60;;;22.30;70.10;;;;;;5071965;28;20036;-48
2022/04/22 13:36:55;;;;;;;8.20;4.32;;;22.20;70.80;;;;;;5071692;28;20044;-48
2022/04/22 13:39:20;;;;;;;7.15;4.00;;;21.90;68.80;;;;;;5072384;28;20043;-48
2022/04/22 13:41:46;;;;;;;7.65;4.03;;;21.50;68.80;;;;;;5072022;28;20032;-47
2022/04/22 13:44:12;;;;;;;7.03;4.25;;;21.30;69.80;;;;;;5072511;28;20036;-53
2022/04/22 13:52:21;;;;;;;8.40;4.10;;;21.10;69.80;;;;;;5071946;28;20051;-46
2022/04/22 13:54:47;;;;;;;10.25;4.60;;;20.80;70.70;;;;;;5072212;28;20479;-46
2022/04/22 13:57:13;;;;;;;11.07;4.35;;;20.50;71.90;;;;;;5070863;28;20040;-50
2022/04/22 13:59:38;;;;;;;9.07;4.72;;;20.80;72.20;;;;;;5072160;28;20066;-48
2022/04/22 14:02:04;;;;;;;9.90;4.60;;;20.40;71.70;;;;;;5071603;28;20111;-49
2022/04/22 14:04:31;;;;;;;7.50;4.97;;;20.30;72.10;;;;;;5071454;28;20194;-48
2022/04/22 14:06:57;;;;;;;9.20;4.88;;;20.20;72.10;;;;;;5071957;28;20045;-48
2022/04/22 14:09:23;;;;;;;9.50;4.72;;;20.30;73.00;;;;;;5071801;28;20048;-48
2022/04/22 14:11:48;;;;;;;10.57;4.50;;;21.20;73.00;;;;;;5071683;28;20041;-49
2022/04/22 14:14:14;;;;;;;7.50;4.38;;;21.50;72.20;;;;;;5071568;28;20098;-49
2022/04/22 14:16:40;;;;;;;9.10;4.55;;;22.00;71.30;;;;;;5053339;28;20219;-47
2022/04/22 14:19:06;;;;;;;6.18;4.10;;;22.30;70.90;;;;;;5071785;28;20067;-47
2022/04/22 14:21:32;;;;;;;10.80;4.20;;;22.40;69.90;;;;;;5071150;28;20037;-46
2022/04/22 14:24:00;;;;;;;9.68;4.32;;;22.70;68.00;;;;;;5053612;28;20040;-50
2022/04/22 14:26:26;;;;;;;7.97;3.70;;;22.60;66.90;;;;;;5071255;28;20539;-50
2022/04/22 14:28:52;;;;;;;8.20;4.00;;;22.80;67.40;;;;;;5068578;28;20119;-47
2022/04/22 14:31:17;;;;;;;8.93;3.63;;;22.80;67.20;;;;;;5069696;28;20044;-48
2022/04/22 14:33:43;;;;;;;8.73;4.30;;;22.60;68.00;;;;;;5071016;28;20043;-50
2022/04/22 14:36:12;;;;;;;6.97;4.03;;;23.00;67.50;;;;;;5071321;28;20033;-48
2022/04/22 14:38:37;;;;;;;12.10;4.30;;;22.40;66.10;;;;;;5090331;28;20043;-53
2022/04/22 14:41:03;;;;;;;7.80;4.50;;;21.80;66.70;;;;;;5091646;28;20032;-49
2022/04/22 14:43:29;;;;;;;6.78;4.10;;;21.90;67.50;;;;;;5091380;28;20119;-49
2022/04/22 14:45:54;;;;;;;6.15;3.95;;;21.90;68.40;;;;;;5091460;28;20044;-50
2022/04/22 14:48:21;;;;;;;6.97;3.97;;;22.40;68.80;;;;;;5020732;28;20458;-51
2022/04/22 14:50:46;;;;;;;9.50;4.65;;;22.90;69.40;;;;;;5070486;28;20218;-49
2022/04/22 14:53:12;;;;;;;7.35;4.35;;;22.60;67.90;;;;;;5076062;28;20119;-48
2022/04/22 14:55:38;;;;;;;8.27;4.03;;;22.60;67.40;;;;;;5091184;28;20040;-51
2022/04/22 14:58:03;;;;;;;10.10;4.30;;;22.50;68.50;;;;;;5088825;28;20036;-50